Time;durP1;ratioP1;P1;durP2;ratioP2;P2;SDS_P1;SDS_P2;PMS_P1;PMS_P2;Temp;Humidity;BMP_temperature;BMP_pressure;BME280_temperature;BME280_humidity;BME280_pressure;Samples;Min_cycle;Max_cycle;Signal;HPM_P1;HPM_P2
2022/01/25 00:26:39;;;;;;;230.43;71.32;;;;;;;1.94;94.07;103463.91;4805685;29;20050;-79
2022/01/25 00:29:08;;;;;;;222.95;68.82;;;;;;;2.00;93.83;103466.56;4787237;24;20553;-79
2022/01/25 00:31:37;;;;;;;217.15;70.60;;;;;;;2.03;94.07;103475.09;4769403;30;20040;-79
2022/01/25 00:34:02;;;;;;;220.93;69.07;;;;;;;1.98;93.81;103464.84;4769617;30;20053;-79
2022/01/25 00:36:28;;;;;;;217.65;71.47;;;;;;;1.99;93.90;103479.28;4769320;30;20481;-79
2022/01/25 00:38:57;;;;;;;223.13;70.20;;;;;;;1.95;94.06;103472.41;4769582;30;20027;-80
2022/01/25 00:41:25;;;;;;;228.38;73.25;;;;;;;1.82;93.97;103450.16;4769410;30;20036;-80
2022/01/25 00:43:54;;;;;;;217.27;68.28;;;;;;;2.04;93.72;103489.53;4769312;30;20465;-79
2022/01/25 00:46:23;;;;;;;221.65;70.35;;;;;;;1.96;93.99;103456.28;4769269;30;20024;-77
2022/01/25 00:48:52;;;;;;;218.27;67.53;;;;;;;2.00;93.67;103451.28;4769519;30;20485;-77
2022/01/25 00:56:35;;;;;;;211.82;66.90;;;;;;;2.07;93.91;103464.13;4769430;30;20043;-79
2022/01/25 00:59:04;;;;;;;199.88;64.57;;;;;;;2.02;94.04;103464.03;4769193;30;20034;-79
2022/01/25 01:01:30;;;;;;;205.60;66.38;;;;;;;2.01;93.97;103462.34;4769507;30;20036;-80
2022/01/25 01:03:55;;;;;;;205.40;65.85;;;;;;;1.89;94.27;103440.09;4769457;30;20028;-79
2022/01/25 01:06:21;;;;;;;199.63;64.60;;;;;;;2.05;94.29;103473.41;4769332;30;20082;-79
2022/01/25 01:08:47;;;;;;;191.15;60.85;;;;;;;2.06;93.91;103477.69;4769717;30;20035;-80
2022/01/25 01:11:20;;;;;;;197.63;63.88;;;;;;;1.93;94.30;103439.28;4772914;30;20051;-79
2022/01/25 01:45:45;;;;;;;176.57;57.95;;;;;;;2.14;93.50;103471.00;4790407;30;20035;-80
2022/01/25 01:48:25;;;;;;;184.65;59.63;;;;;;;1.98;93.60;103449.56;4788578;30;20134;-79
2022/01/25 01:53:25;;;;;;;172.43;59.03;;;;;;;2.18;93.90;103483.84;4860573;24;20060;-80
2022/01/25 01:55:51;;;;;;;177.95;60.25;;;;;;;1.96;93.70;103444.41;4771820;30;20504;-80
2022/01/25 02:00:48;;;;;;;;;;;;;;;2.24;93.47;103476.25;5107180;24;20059;-80
2022/01/25 02:03:14;;;;;;;166.07;55.78;;;;;;;2.20;93.91;103473.66;4771983;30;20038;-79
2022/01/25 02:05:40;;;;;;;154.73;55.72;;;;;;;1.66;93.85;103381.13;4789894;30;20031;-79
2022/01/25 02:08:06;;;;;;;154.13;52.38;;;;;;;2.14;93.87;103460.81;4789589;30;20110;-79
2022/01/25 02:10:33;;;;;;;155.90;54.42;;;;;;;2.22;94.04;103470.28;4789549;30;20122;-79
2022/01/25 02:12:58;;;;;;;169.07;59.13;;;;;;;2.25;93.71;103464.38;4789783;30;20063;-79
2022/01/25 02:15:26;;;;;;;165.10;56.85;;;;;;;2.24;94.02;103466.06;4789442;30;20571;-79
2022/01/25 02:22:21;;;;;;;166.70;56.70;;;;;;;2.23;93.91;103466.91;4789644;30;20058;-80
2022/01/25 02:23:24;;;;;;;162.18;55.67;;;;;;;2.23;94.31;103456.69;4789346;30;20050;-79
2022/01/25 02:25:54;;;;;;;158.38;57.75;;;;;;;2.02;94.34;103418.16;4789593;30;20118;-80
2022/01/25 02:29:15;;;;;;;152.23;55.20;;;;;;;2.24;94.31;103444.81;4910349;24;20055;-79
2022/01/25 02:31:52;;;;;;;157.10;55.90;;;;;;;1.78;94.53;103372.84;4789327;30;20167;-80
2022/01/25 02:34:43;;;;;;;160.95;56.17;;;;;;;2.25;94.20;103449.91;4789664;30;20037;-80
2022/01/25 02:37:39;;;;;;;141.35;52.05;;;;;;;2.27;94.34;103437.22;4789364;30;20038;-80
2022/01/25 02:40:14;;;;;;;141.90;52.80;;;;;;;2.20;94.20;103435.41;4789219;29;20403;-80
2022/01/25 02:42:45;;;;;;;145.05;53.65;;;;;;;2.26;94.25;103445.69;4789125;30;20074;-80
2022/01/25 02:45:16;;;;;;;142.68;52.60;;;;;;;2.07;94.53;103414.00;4789115;30;20057;-80
2022/01/25 02:50:26;;;;;;;141.68;51.95;;;;;;;2.23;94.29;103432.91;4788896;30;20099;-80
2022/01/25 02:52:52;;;;;;;139.45;52.60;;;;;;;1.95;94.64;103393.44;4789057;30;20031;-80
2022/01/25 02:55:20;;;;;;;136.07;51.28;;;;;;;2.20;94.63;103440.50;4788808;30;20088;-80
2022/01/25 02:57:46;;;;;;;128.10;48.92;;;;;;;2.21;94.31;103450.72;4789039;30;20035;-80
2022/01/25 03:00:13;;;;;;;147.63;52.03;;;;;;;2.23;94.63;103443.09;4788896;30;20062;-80
2022/01/25 03:02:38;;;;;;;138.00;52.45;;;;;;;2.21;94.50;103449.88;4788786;30;20114;-80
2022/01/25 03:05:05;;;;;;;135.77;51.72;;;;;;;2.08;94.63;103417.41;4788647;30;20622;-80
2022/01/25 03:07:38;;;;;;;124.75;47.67;;;;;;;2.13;94.71;103419.16;4788811;30;20036;-80
2022/01/25 03:10:05;;;;;;;123.88;50.65;;;;;;;2.20;94.33;103438.81;4772568;30;20076;-80
2022/01/25 03:12:38;;;;;;;119.63;48.42;;;;;;;2.19;94.42;103434.56;4788774;30;20039;-80
2022/01/25 03:17:56;;;;;;;120.00;48.35;;;;;;;2.10;94.75;103403.00;4788575;30;20039;-79
2022/01/25 03:20:34;;;;;;;119.32;48.28;;;;;;;2.06;94.42;103398.66;4788537;30;20042;-79
2022/01/25 03:23:05;;;;;;;119.18;47.15;;;;;;;2.17;94.94;103404.78;4788534;30;20105;-79
2022/01/25 03:25:31;;;;;;;123.88;48.03;;;;;;;2.07;94.84;103391.06;4788218;30;20027;-79
2022/01/25 03:27:57;;;;;;;114.10;47.38;;;;;;;2.21;94.73;103416.72;4788305;30;20066;-79
2022/01/25 03:30:24;;;;;;;117.65;46.53;;;;;;;1.99;94.41;103379.91;4788453;30;20032;-80
2022/01/25 03:32:49;;;;;;;122.78;49.13;;;;;;;2.27;94.79;103420.22;4788600;29;20046;-79
2022/01/25 03:35:15;;;;;;;116.30;47.55;;;;;;;2.10;94.83;103380.91;4788302;30;20039;-79
2022/01/25 03:37:41;;;;;;;120.70;48.92;;;;;;;2.21;94.44;103393.78;4788400;30;20031;-79
2022/01/25 03:40:07;;;;;;;125.95;49.55;;;;;;;2.18;94.38;103396.31;4772101;30;20027;-79
2022/01/25 03:42:36;;;;;;;115.97;46.33;;;;;;;2.30;94.44;103414.31;4788115;30;20034;-79
2022/01/25 03:45:04;;;;;;;119.13;48.47;;;;;;;2.13;94.37;103396.22;4788005;30;20091;-79
2022/01/25 03:47:43;;;;;;;111.07;47.40;;;;;;;2.29;94.43;103408.34;4787956;30;20027;-79
2022/01/25 03:50:08;;;;;;;110.28;45.03;;;;;;;2.29;94.51;103416.00;4787987;30;20031;-79
2022/01/25 03:52:36;;;;;;;119.20;46.80;;;;;;;2.30;94.68;103411.75;4787995;30;20046;-79
2022/01/25 03:55:01;;;;;;;119.45;47.53;;;;;;;2.27;94.72;103432.97;4756956;30;20039;-79
2022/01/25 03:57:27;;;;;;;113.70;47.78;;;;;;;2.08;94.54;103400.44;4787825;30;20433;-80
2022/01/25 03:59:54;;;;;;;122.72;48.63;;;;;;;2.33;95.27;103433.88;4787893;30;20039;-80
2022/01/25 04:02:19;;;;;;;115.00;46.38;;;;;;;2.07;94.65;103390.22;4786764;29;20043;-79
2022/01/25 04:04:46;;;;;;;120.78;48.15;;;;;;;2.32;94.30;103433.03;4787958;30;20029;-79
2022/01/25 04:07:13;;;;;;;123.43;48.15;;;;;;;2.31;94.72;103431.31;4787811;30;20501;-80
2022/01/25 04:10:00;;;;;;;122.03;49.05;;;;;;;2.18;94.47;103407.38;4787617;30;20146;-79
2022/01/25 04:17:37;;;;;;;117.18;48.33;;;;;;;2.09;93.69;103386.00;4843166;24;20052;-79
2022/01/25 04:20:21;;;;;;;124.72;50.17;;;;;;;2.29;94.36;103407.50;4787692;30;20105;-79
2022/01/25 04:25:30;;;;;;;115.68;48.50;;;;;;;2.44;93.94;103419.56;4805569;29;20049;-80
2022/01/25 04:27:56;;;;;;;119.10;48.15;;;;;;;2.24;93.86;103386.16;4805632;29;20034;-80
2022/01/25 04:30:21;;;;;;;127.05;49.35;;;;;;;2.42;94.20;103411.91;4805587;29;20118;-79
2022/01/25 04:33:03;;;;;;;115.80;47.53;;;;;;;2.45;93.84;103413.63;4805747;29;20035;-79
2022/01/25 04:56:54;;;;;;;98.75;42.95;;;;;;;2.44;94.35;103404.25;4809003;29;20392;-79
2022/01/25 05:02:14;;;;;;;105.55;44.85;;;;;;;2.40;94.30;103408.47;4735639;30;20120;-79
2022/01/25 05:04:54;;;;;;;106.32;45.88;;;;;;;2.38;94.23;103399.97;4735440;30;20040;-79
2022/01/25 05:10:02;;;;;;;111.47;46.03;;;;;;;2.32;94.33;103381.16;4735784;30;20033;-79
2022/01/25 05:13:13;;;;;;;106.05;45.08;;;;;;;2.35;94.27;103392.25;4734999;30;20131;-79
2022/01/25 05:16:01;;;;;;;103.53;44.65;;;;;;;2.34;94.32;103395.66;4733684;30;20090;-79
2022/01/25 05:18:35;;;;;;;101.10;43.80;;;;;;;2.27;94.07;103383.69;4735066;30;20532;-79
2022/01/25 05:31:21;;;;;;;103.13;43.65;;;;;;;1.26;93.97;103192.97;4790814;30;20223;-79
2022/01/25 05:33:55;;;;;;;101.93;45.15;;;;;;;1.96;93.81;103313.59;4790363;30;20050;-79
2022/01/25 05:50:50;;;;;;;103.55;44.97;;;;;;;2.46;94.29;103393.28;4752623;30;20054;-79
2022/01/25 05:54:11;;;;;;;103.07;44.75;;;;;;;2.46;94.11;103397.47;4752204;30;20040;-79
2022/01/25 06:10:17;;;;;;;106.53;45.38;;;;;;;1.64;93.28;103252.06;4734754;30;20501;-80
2022/01/25 06:12:57;;;;;;;96.90;43.45;;;;;;;1.44;93.67;103222.09;4734251;30;20080;-80
2022/01/25 06:18:44;;;;;;;105.75;45.35;;;;;;;2.08;93.33;103333.31;4752286;30;20131;-80
2022/01/25 06:21:34;;;;;;;105.75;45.60;;;;;;;2.47;93.77;103397.53;4751894;30;20127;-80
2022/01/25 06:44:01;;;;;;;100.75;45.08;;;;;;;2.56;93.24;103392.53;4727041;30;20047;-79
2022/01/25 06:46:26;;;;;;;99.68;45.70;;;;;;;2.52;93.32;103390.78;4751699;30;20060;-79
2022/01/25 06:48:51;;;;;;;114.07;48.92;;;;;;;2.54;92.69;103404.38;4751544;30;20048;-78
2022/01/25 06:51:17;;;;;;;105.10;46.67;;;;;;;2.53;93.13;103409.47;4751814;30;20176;-81
2022/01/25 06:53:42;;;;;;;112.90;48.03;;;;;;;2.41;92.98;103373.63;4783243;30;20178;-79
2022/01/25 06:56:08;;;;;;;105.00;46.70;;;;;;;2.50;92.68;103392.44;4789136;30;20031;-79
2022/01/25 06:58:33;;;;;;;105.53;47.47;;;;;;;2.56;92.80;103401.88;4789005;29;20095;-78
2022/01/25 07:01:04;;;;;;;114.30;48.63;;;;;;;2.40;92.46;103377.03;4789017;30;20446;-78
2022/01/25 07:03:29;;;;;;;106.07;47.00;;;;;;;2.57;92.87;103404.44;4788723;30;20039;-79
2022/01/25 07:05:55;;;;;;;108.47;48.00;;;;;;;2.54;93.33;103409.50;4788972;30;20499;-79
2022/01/25 07:08:20;;;;;;;102.97;45.05;;;;;;;2.55;93.32;103411.19;4788615;29;20031;-80
2022/01/25 07:10:45;;;;;;;102.03;45.95;;;;;;;2.53;92.97;103410.34;4788709;30;20035;-80
2022/01/25 07:13:11;;;;;;;108.28;44.38;;;;;;;2.40;93.78;103388.09;4788592;30;20054;-80
2022/01/25 07:15:39;;;;;;;106.70;46.95;;;;;;;2.54;92.85;103404.38;4788638;30;20078;-80
2022/01/25 07:18:04;;;;;;;112.65;48.55;;;;;;;2.56;92.52;103409.53;4788481;30;20035;-79
2022/01/25 07:20:30;;;;;;;113.07;49.20;;;;;;;2.57;92.76;103409.56;4788545;30;20035;-80
2022/01/25 07:22:55;;;;;;;113.70;50.45;;;;;;;2.58;92.28;103407.84;4788675;30;20035;-81
2022/01/25 07:25:21;;;;;;;114.80;50.05;;;;;;;2.59;92.74;103412.97;4788634;30;20119;-80
2022/01/25 07:27:47;;;;;;;109.43;48.22;;;;;;;2.59;92.55;103417.22;4788499;30;20395;-79
2022/01/25 07:30:12;;;;;;;113.47;49.42;;;;;;;2.62;92.12;103422.34;4788184;29;20114;-80
2022/01/25 07:32:38;;;;;;;125.15;51.50;;;;;;;2.67;91.22;103414.75;4788327;30;20546;-79
2022/01/25 07:35:05;;;;;;;112.80;49.67;;;;;;;2.65;90.55;103414.72;4788491;30;20031;-80
2022/01/25 07:37:30;;;;;;;114.75;50.65;;;;;;;2.69;90.67;103415.63;4791991;29;20051;-76
2022/01/25 07:39:57;;;;;;;114.60;50.35;;;;;;;2.71;89.74;103419.03;4806516;29;20038;-75
2022/01/25 07:42:22;;;;;;;110.30;48.20;;;;;;;2.71;90.61;103419.03;4806356;29;20027;-79
2022/01/25 07:44:48;;;;;;;117.53;50.35;;;;;;;2.62;91.36;103395.97;4789898;29;20046;-79
2022/01/25 07:47:13;;;;;;;117.65;50.30;;;;;;;2.64;89.75;103405.34;4806113;29;20463;-76
2022/01/25 07:49:39;;;;;;;116.25;51.65;;;;;;;2.65;90.41;103393.44;4806091;29;20404;-78
2022/01/25 07:52:05;;;;;;;114.95;52.33;;;;;;;2.76;90.52;103420.81;4805943;29;20035;-77
2022/01/25 08:00:18;;;;;;;127.95;55.13;;;;;;;2.77;88.99;103419.13;4959395;24;20098;-79
2022/01/25 08:02:46;;;;;;;127.90;54.88;;;;;;;2.81;89.39;103420.84;4790432;29;20563;-79
2022/01/25 08:05:16;;;;;;;127.55;55.38;;;;;;;2.62;88.50;103380.66;4805805;29;20027;-83
2022/01/25 08:07:42;;;;;;;130.45;56.67;;;;;;;2.64;89.50;103381.53;4804183;29;20042;-81
2022/01/25 08:10:08;;;;;;;127.47;55.03;;;;;;;2.74;89.65;103399.50;4805909;29;20023;-81
2022/01/25 08:12:34;;;;;;;124.43;53.67;;;;;;;2.86;90.11;103414.97;4805723;29;20042;-82
2022/01/25 08:15:00;;;;;;;130.27;55.35;;;;;;;2.72;89.61;103395.25;4805643;29;20031;-82
2022/01/25 08:17:26;;;;;;;126.72;55.25;;;;;;;2.88;90.09;103420.94;4805823;29;20062;-82
2022/01/25 08:19:51;;;;;;;125.65;55.35;;;;;;;2.72;88.93;103392.69;4803617;29;20039;-81
2022/01/25 08:22:18;;;;;;;125.80;54.75;;;;;;;2.68;89.70;103388.41;4787322;24;20068;-82
2022/01/25 08:24:44;;;;;;;131.77;57.83;;;;;;;2.95;88.80;103424.44;4787742;30;20031;-82
2022/01/25 08:27:11;;;;;;;136.85;59.13;;;;;;;2.80;87.88;103398.72;4787653;30;20507;-84
2022/01/25 08:29:37;;;;;;;144.48;62.63;;;;;;;2.79;87.11;103387.66;4787277;30;20092;-83
2022/01/25 08:32:03;;;;;;;143.70;62.15;;;;;;;3.04;87.71;103429.59;4787637;30;20035;-82
2022/01/25 08:34:30;;;;;;;139.70;60.05;;;;;;;3.06;87.65;103435.59;4787875;30;20061;-83
2022/01/25 08:43:07;;;;;;;138.25;60.17;;;;;;;2.06;86.35;103248.31;4629805;31;20050;-80
2022/01/25 08:56:05;;;;;;;135.93;59.28;;;;;;;2.50;86.65;103312.53;4886732;24;20093;-81
2022/01/25 09:15:41;;;;;;;136.35;60.20;;;;;;;2.35;85.18;103274.97;4787388;29;20112;-82
2022/01/25 09:18:34;;;;;;;;;;;;;;;3.45;85.91;103442.78;4787473;30;20035;-82
2022/01/25 09:20:59;;;;;;;139.23;58.85;;;;;;;3.41;84.97;103435.06;4787222;30;19917;-82
2022/01/25 09:23:25;;;;;;;143.73;61.08;;;;;;;2.92;83.51;103352.91;4787215;30;20031;-83
2022/01/25 09:26:01;;;;;;;141.30;60.15;;;;;;;3.18;82.22;103404.22;4787055;30;20047;-82
2022/01/25 09:32:20;;;;;;;137.70;59.13;;;;;;;3.41;83.49;103452.94;4789986;29;20459;-84
2022/01/25 09:35:29;;;;;;;143.63;62.00;;;;;;;3.44;82.91;103450.41;4790373;30;20054;-82
2022/01/25 09:48:05;;;;;;;139.75;58.13;;;;;;;2.36;81.45;103263.97;4789993;29;20097;-82
2022/01/25 09:50:31;;;;;;;135.63;58.80;;;;;;;2.91;81.56;103353.75;4790004;30;20440;-82
2022/01/25 09:53:06;;;;;;;;;;;;;;;;;;;;;
2022/01/25 09:55:46;;;;;;;137.73;61.17;;;;;;;3.19;82.24;103395.72;4743450;30;20042;-82
2022/01/25 09:58:31;;;;;;;144.63;61.00;;;;;;;3.06;82.38;103376.03;4790165;30;20058;-82
2022/01/25 10:01:07;;;;;;;141.88;61.47;;;;;;;2.47;80.57;103282.75;4789690;30;20040;-82
2022/01/25 10:03:37;;;;;;;144.18;61.10;;;;;;;3.10;80.53;103393.94;4789381;29;20040;-82
2022/01/25 10:06:10;;;;;;;141.48;59.53;;;;;;;3.51;80.56;103476.88;4773672;30;20031;-83
2022/01/25 10:08:39;;;;;;;141.07;56.90;;;;;;;3.58;81.13;103470.97;4789470;30;20039;-84
2022/01/25 10:11:09;;;;;;;137.82;62.35;;;;;;;3.59;80.59;103472.69;4789652;30;20062;-83
2022/01/25 10:13:50;;;;;;;139.82;60.78;;;;;;;3.26;80.47;103401.75;4789804;30;20039;-84
2022/01/25 10:16:29;;;;;;;145.10;60.90;;;;;;;3.64;80.44;103455.72;4788816;30;20106;-83
2022/01/25 10:18:59;;;;;;;142.80;59.55;;;;;;;3.74;80.56;103465.16;4788152;30;20035;-84
2022/01/25 10:24:29;;;;;;;141.70;62.73;;;;;;;3.30;80.41;103388.16;4788628;30;20041;-84
2022/01/25 10:27:01;;;;;;;136.95;58.55;;;;;;;3.71;80.08;103460.84;4789442;30;20043;-82
2022/01/25 10:29:52;;;;;;;143.40;60.65;;;;;;;3.76;80.46;103478.78;4789386;30;20031;-82
2022/01/25 10:32:22;;;;;;;141.27;60.55;;;;;;;3.48;80.15;103433.41;4788994;29;20031;-82
2022/01/25 10:35:45;;;;;;;140.18;59.40;;;;;;;3.47;80.31;103403.63;4789056;30;20023;-82
2022/01/25 10:38:19;;;;;;;143.05;60.75;;;;;;;3.78;79.69;103466.03;4800269;24;20055;-83
2022/01/25 10:40:56;;;;;;;138.85;60.30;;;;;;;3.53;79.48;103424.06;4771461;30;20047;-82
2022/01/25 10:43:23;;;;;;;136.20;58.67;;;;;;;3.81;79.25;103463.47;4770679;30;20492;-84
2022/01/25 10:46:28;;;;;;;135.32;59.70;;;;;;;3.75;79.96;103433.63;4771448;30;20039;-82
2022/01/25 10:49:06;;;;;;;140.85;59.88;;;;;;;3.97;79.43;103471.28;4733730;30;20482;-82
2022/01/25 10:51:37;;;;;;;141.40;58.90;;;;;;;4.04;77.49;103461.97;4733815;30;20076;-82
2022/01/25 10:54:17;;;;;;;137.77;60.42;;;;;;;4.05;77.89;103458.56;4733714;30;20036;-82
2022/01/25 10:56:57;;;;;;;136.23;59.35;;;;;;;3.75;77.19;103420.88;4733722;30;20044;-82
2022/01/25 10:59:29;;;;;;;139.70;60.92;;;;;;;4.00;77.12;103463.63;4733834;30;20036;-82
2022/01/25 11:01:58;;;;;;;136.05;57.72;;;;;;;4.08;77.52;103450.03;4733684;30;20509;-83
2022/01/25 11:04:31;;;;;;;134.68;58.15;;;;;;;3.96;77.04;103432.94;4733281;30;20052;-84
2022/01/25 11:07:03;;;;;;;142.13;62.33;;;;;;;4.12;77.25;103462.84;4733616;30;20041;-81
2022/01/25 11:09:36;;;;;;;138.40;59.20;;;;;;;4.10;78.15;103448.34;4733605;30;20048;-84
2022/01/25 11:17:59;;;;;;;134.25;59.35;;;;;;;4.15;76.52;103473.09;4788943;30;20396;-83
2022/01/25 11:20:24;;;;;;;139.32;60.15;;;;;;;4.06;76.55;103459.41;4788662;30;20089;-82
2022/01/25 11:23:08;;;;;;;138.75;60.63;;;;;;;3.16;76.89;103308.88;4788363;30;20039;-82
2022/01/25 11:25:33;;;;;;;130.95;57.95;;;;;;;3.38;76.37;103353.31;4788449;30;20408;-83
2022/01/25 11:27:59;;;;;;;141.98;59.72;;;;;;;3.27;76.56;103311.53;4788415;30;20030;-82
2022/01/25 11:33:54;;;;;;;139.05;60.30;;;;;;;3.71;77.00;103371.41;4787880;29;20075;-81
2022/01/25 11:36:58;;;;;;;143.23;57.50;;;;;;;4.28;76.88;103461.22;4788383;30;20035;-81
2022/01/25 11:40:24;;;;;;;141.45;61.25;;;;;;;4.24;76.86;103462.06;4788457;30;20019;-82
2022/01/25 11:46:21;;;;;;;140.57;59.58;;;;;;;3.63;77.40;103387.53;4750691;30;20043;-82
2022/01/25 11:48:51;;;;;;;142.55;59.10;;;;;;;3.29;77.17;103325.16;4750204;30;20086;-84
2022/01/25 11:51:22;;;;;;;140.15;59.60;;;;;;;3.13;77.15;103290.97;4750425;30;20083;-84
2022/01/25 11:53:51;;;;;;;147.55;59.33;;;;;;;3.76;76.98;103391.03;4750427;30;20523;-83
2022/01/25 11:56:26;;;;;;;144.35;59.85;;;;;;;3.34;77.19;103324.34;4750266;30;20032;-86
2022/01/25 11:59:40;;;;;;;136.80;59.25;;;;;;;4.15;76.62;103462.03;4764101;30;20131;-83
2022/01/25 12:02:06;;;;;;;137.05;55.95;;;;;;;3.69;75.84;103396.09;4768025;30;20602;-84
2022/01/25 12:17:59;;;;;;;147.32;58.65;;;;;;;3.85;77.55;103452.44;4993280;24;20055;-85
2022/01/25 12:42:08;;;;;;;;;;;;;;;;;;;;;
2022/01/25 12:54:42;;;;;;;147.20;57.53;;;;;;;3.65;75.97;103342.44;4915713;24;20063;-77
2022/01/25 13:03:59;;;;;;;145.02;57.45;;;;;;;3.03;75.95;103189.66;4725421;24;20121;-78
2022/01/25 13:06:29;;;;;;;146.80;57.33;;;;;;;4.23;75.55;103386.19;4807900;29;20047;-77
2022/01/25 13:09:25;;;;;;;143.82;56.58;;;;;;;4.39;75.83;103395.63;4808805;29;20035;-78
2022/01/25 13:19:42;;;;;;;143.43;56.97;;;;;;;4.04;75.11;103352.00;4113595;27;20075;-80
2022/01/25 13:22:13;;;;;;;149.82;58.85;;;;;;;4.23;75.64;103391.31;4790755;29;20111;-81
2022/01/25 13:24:56;;;;;;;152.02;59.35;;;;;;;4.16;75.07;103375.06;4790421;30;20036;-80
2022/01/25 13:27:25;;;;;;;153.80;60.05;;;;;;;4.19;75.36;103385.31;4790815;30;20036;-81
2022/01/25 13:32:58;;;;;;;148.52;59.08;;;;;;;4.05;75.66;103376.72;4806786;29;20062;-85
2022/01/25 13:41:56;;;;;;;143.13;56.42;;;;;;;4.02;75.88;103376.69;4808398;29;20053;-80
2022/01/25 14:41:05;;;;;;;147.90;56.50;;;;;;;4.02;75.87;103349.44;5136488;24;20052;-81
2022/01/25 14:43:33;;;;;;;;;;;;;;;4.08;76.22;103343.50;4789586;30;20099;-81
2022/01/25 14:46:11;;;;;;;157.48;56.95;;;;;;;4.01;75.20;103345.16;4789400;30;19934;-79
2022/01/25 14:48:38;;;;;;;155.88;55.70;;;;;;;3.86;75.14;103329.78;4788944;29;20030;-80
2022/01/25 14:51:08;;;;;;;160.18;58.83;;;;;;;3.89;75.46;103334.03;4789018;30;20461;-79
2022/01/25 14:53:33;;;;;;;149.65;57.13;;;;;;;3.73;74.50;103307.53;4788724;29;20027;-80
2022/01/25 14:56:19;;;;;;;157.63;57.10;;;;;;;3.84;75.55;103320.38;4789064;30;20048;-76
2022/01/25 15:01:19;;;;;;;156.63;56.13;;;;;;;3.92;75.68;103337.44;4788838;30;20043;-78
2022/01/25 15:03:45;;;;;;;158.10;56.38;;;;;;;3.84;75.86;103336.56;4788938;29;20042;-76
2022/01/25 15:06:15;;;;;;;164.68;56.38;;;;;;;3.92;75.69;103341.72;4797765;29;20088;-80
2022/01/25 15:08:56;;;;;;;158.65;57.10;;;;;;;3.81;75.78;103322.91;4789908;29;20024;-79
2022/01/25 15:11:29;;;;;;;160.40;56.67;;;;;;;3.93;75.17;103335.75;4788803;30;20393;-80
2022/01/25 15:14:00;;;;;;;165.65;57.22;;;;;;;3.93;75.34;103334.06;4788513;30;20042;-80
2022/01/25 15:16:25;;;;;;;158.45;56.50;;;;;;;3.74;74.56;103305.00;4788776;30;20031;-81
2022/01/25 15:18:50;;;;;;;169.93;57.63;;;;;;;3.94;74.94;103335.78;4788626;30;20333;-82
2022/01/25 15:29:22;;;;;;;171.60;58.65;;;;;;;2.74;76.04;103174.13;5329832;24;20047;-79
2022/01/25 15:31:50;;;;;;;178.73;65.30;;;;;;;3.05;76.06;103234.78;4769818;30;20020;-79
2022/01/25 15:34:16;;;;;;;173.32;59.95;;;;;;;3.60;76.06;103332.16;4770370;30;20032;-79
2022/01/25 15:37:12;;;;;;;180.02;64.25;;;;;;;3.71;76.74;103353.53;4770543;30;20043;-77
2022/01/25 15:39:37;;;;;;;172.75;60.28;;;;;;;3.72;77.00;103356.94;4754162;30;20027;-80
2022/01/25 15:42:03;;;;;;;182.32;62.00;;;;;;;3.14;75.96;103267.16;4770502;30;20036;-78
2022/01/25 15:44:39;;;;;;;180.13;62.80;;;;;;;3.50;77.12;103327.84;4770418;30;20366;-79
2022/01/25 15:47:09;;;;;;;179.65;62.63;;;;;;;3.54;76.92;103334.69;4788292;30;20028;-81
2022/01/25 15:49:35;;;;;;;182.13;60.95;;;;;;;3.64;76.37;103350.94;4787961;30;20085;-79
2022/01/25 15:52:02;;;;;;;187.32;63.30;;;;;;;3.68;76.09;103355.22;4788163;30;20050;-80
2022/01/25 15:54:27;;;;;;;182.20;60.53;;;;;;;3.62;76.48;103338.13;4786772;30;20031;-80
2022/01/25 15:56:54;;;;;;;190.02;60.15;;;;;;;3.52;77.24;103315.94;4787906;30;20042;-81
2022/01/25 15:59:21;;;;;;;195.00;63.22;;;;;;;3.66;77.20;103352.66;4788091;30;20023;-82
2022/01/25 16:01:51;;;;;;;190.27;63.40;;;;;;;3.56;77.32;103329.59;4788109;30;20031;-79
2022/01/25 16:04:17;;;;;;;197.50;65.55;;;;;;;3.51;77.49;103334.66;4787822;30;20039;-80
2022/01/25 16:07:05;;;;;;;194.38;63.70;;;;;;;3.61;77.79;103346.66;4788430;30;20408;-82
2022/01/25 16:12:43;;;;;;;197.80;64.82;;;;;;;3.60;77.32;103349.19;4751644;30;20135;-78
2022/01/25 16:15:28;;;;;;;192.88;66.25;;;;;;;2.46;77.41;103158.66;4735513;30;20127;-80
2022/01/25 16:18:02;;;;;;;189.57;64.20;;;;;;;2.48;77.87;103162.06;4750227;30;20044;-81
2022/01/25 16:20:39;;;;;;;198.23;64.55;;;;;;;3.12;77.81;103279.91;4750126;30;20040;-81
2022/01/25 16:23:06;;;;;;;232.23;76.63;;;;;;;3.38;77.36;103340.53;4749874;30;20109;-82
2022/01/25 16:25:49;;;;;;;269.95;95.90;;;;;;;2.52;77.39;103184.19;4731635;30;20511;-81
2022/01/25 16:28:15;;;;;;;228.95;71.60;;;;;;;2.76;77.87;103228.59;4732579;30;20043;-80
2022/01/25 16:31:16;;;;;;;223.27;73.70;;;;;;;2.42;77.75;103177.28;4748884;30;20135;-80
2022/01/25 17:05:33;;;;;;;233.65;70.63;;;;;;;2.27;79.73;103149.13;5713821;24;20119;-80
2022/01/25 17:08:26;;;;;;;240.10;73.75;;;;;;;2.35;78.75;103165.31;4785131;30;20071;-81
2022/01/25 17:14:53;;;;;;;232.10;71.00;;;;;;;2.94;79.31;103268.69;4767692;30;20075;-77
2022/01/25 17:17:37;;;;;;;237.27;70.20;;;;;;;3.40;79.43;103349.06;4767416;30;20040;-79
2022/01/25 17:20:12;;;;;;;246.18;72.15;;;;;;;2.93;78.93;103275.50;4767058;30;20044;-78
2022/01/25 17:22:38;;;;;;;253.02;73.75;;;;;;;3.28;79.08;103334.50;4767058;30;20039;-78
2022/01/25 17:25:05;;;;;;;249.63;69.32;;;;;;;3.28;78.79;103337.06;4766942;30;20481;-78
2022/01/25 17:27:31;;;;;;;255.80;73.25;;;;;;;3.22;79.19;103325.94;4767408;30;20039;-78
2022/01/25 17:29:56;;;;;;;262.35;75.93;;;;;;;3.24;79.00;103335.31;4766983;30;20054;-79
2022/01/25 17:32:21;;;;;;;250.77;71.60;;;;;;;3.33;79.40;103347.28;4767313;30;20036;-79
2022/01/25 17:34:47;;;;;;;265.98;74.40;;;;;;;3.35;78.96;103350.75;4766814;30;20047;-80
2022/01/25 17:37:12;;;;;;;258.88;75.15;;;;;;;3.25;78.87;103336.19;4766936;30;20043;-80
2022/01/25 17:39:38;;;;;;;261.67;74.47;;;;;;;3.32;79.74;103353.25;4767050;30;20028;-79
2022/01/25 17:42:03;;;;;;;272.70;76.82;;;;;;;3.31;78.74;103359.22;4766923;30;20198;-80
2022/01/25 17:44:29;;;;;;;267.10;74.30;;;;;;;3.17;79.98;103313.16;4767178;30;20043;-79
2022/01/25 17:46:54;;;;;;;291.23;81.18;;;;;;;3.00;79.56;103295.13;4771067;29;20166;-80
2022/01/25 17:49:19;;;;;;;285.80;75.82;;;;;;;3.33;78.59;103339.63;4804606;29;20035;-78
2022/01/25 17:51:45;;;;;;;285.10;73.85;;;;;;;3.34;79.71;103338.78;4805239;29;20058;-79
2022/01/25 18:01:58;;;;;;;315.55;84.78;;;;;;;2.80;80.11;103263.50;3897859;24;20197;-76
2022/01/25 18:08:24;;;;;;;305.40;82.30;;;;;;;3.30;79.58;103331.97;4878814;24;20060;-79
2022/01/25 18:11:57;;;;;;;311.90;84.50;;;;;;;3.28;79.75;103333.66;4786969;29;20071;-80
2022/01/25 18:29:17;;;;;;;334.80;87.70;;;;;;;3.16;78.95;103342.09;4773164;27;20047;-79
2022/01/25 18:38:43;;;;;;;317.55;83.15;;;;;;;3.17;78.72;103351.44;4845019;24;20400;-78
2022/01/25 18:41:09;;;;;;;320.25;87.45;;;;;;;2.54;77.83;103248.81;4789270;29;20122;-79
2022/01/25 18:44:49;;;;;;;323.98;83.80;;;;;;;3.19;78.12;103346.34;4789348;30;20114;-78
2022/01/25 18:47:24;;;;;;;335.95;84.18;;;;;;;2.03;77.81;103172.69;4789106;30;20180;-79
2022/01/25 18:49:55;;;;;;;343.48;89.30;;;;;;;3.10;77.42;103358.19;4789172;30;20031;-78
2022/01/25 18:52:27;;;;;;;327.15;87.88;;;;;;;2.28;77.42;103214.56;4789179;30;20123;-77
2022/01/25 18:54:52;;;;;;;348.40;92.45;;;;;;;2.73;78.07;103300.00;4789178;30;20092;-79
2022/01/25 18:57:22;;;;;;;337.33;88.63;;;;;;;2.92;77.80;103334.19;4789031;29;20043;-78
2022/01/25 18:59:48;;;;;;;324.23;80.80;;;;;;;2.91;77.88;103327.38;4788651;30;20097;-78
2022/01/25 19:02:19;;;;;;;322.77;86.90;;;;;;;3.07;77.30;103360.72;4787548;29;20480;-78
2022/01/25 19:04:45;;;;;;;326.40;86.97;;;;;;;3.01;77.91;103354.69;4788524;30;20177;-79